createdAt,value
2018-03-18T00:00:23.436Z,93.80
2018-03-18T00:05:06.924Z,94.20
2018-03-18T00:09:50.375Z,93.40
2018-03-18T00:14:34.712Z,93.40
2018-03-18T00:19:18.487Z,93.40
2018-03-18T00:24:02.600Z,93.40
2018-03-18T00:28:45.969Z,93.40
2018-03-18T00:33:30.071Z,92.60
2018-03-18T00:38:13.480Z,92.60
2018-03-18T00:42:56.827Z,92.50
2018-03-18T00:47:40.258Z,92.40
2018-03-18T00:52:23.595Z,92.30
2018-03-18T00:57:07.726Z,92.20
2018-03-18T01:01:51.448Z,92.10
2018-03-18T01:06:35.189Z,93.70
2018-03-18T01:11:19.480Z,92.80
2018-03-18T01:16:03.301Z,92.80
2018-03-18T01:20:47.621Z,92.10
2018-03-18T01:25:31.759Z,91.50
2018-03-18T01:30:15.631Z,91.50
2018-03-18T01:34:59.047Z,91.50
2018-03-18T01:39:42.411Z,91.40
2018-03-18T01:44:26.141Z,91.70
2018-03-18T01:49:09.806Z,91.80
2018-03-18T01:53:53.201Z,91.30
2018-03-18T01:58:36.678Z,91.80
2018-03-18T02:03:20.322Z,91.90
2018-03-18T02:08:03.701Z,91.50
2018-03-18T02:12:47.038Z,91.90
2018-03-18T02:17:30.399Z,91.40
2018-03-18T02:22:13.768Z,91.10
2018-03-18T02:26:57.168Z,91.20
2018-03-18T02:31:40.620Z,91.30
2018-03-18T02:36:24.727Z,91.40
2018-03-18T02:41:08.307Z,91.30
2018-03-18T02:45:51.696Z,91.40
2018-03-18T02:50:35.403Z,91.70
2018-03-18T02:55:18.760Z,91.30
2018-03-18T03:00:03.149Z,91.10
2018-03-18T03:04:46.518Z,91.00
2018-03-18T03:09:29.898Z,91.20
2018-03-18T03:14:15.979Z,91.60
2018-03-18T03:18:59.307Z,90.70
2018-03-18T03:23:42.631Z,91.60
2018-03-18T03:28:26.325Z,91.30
2018-03-18T03:33:10.789Z,91.50
2018-03-18T03:37:55.412Z,91.70
2018-03-18T03:42:38.834Z,91.70
2018-03-18T03:47:22.175Z,92.50
2018-03-18T03:52:05.968Z,91.80
2018-03-18T03:56:49.588Z,91.40
2018-03-18T04:01:36.390Z,91.40
2018-03-18T04:06:19.742Z,91.80
2018-03-18T04:11:03.179Z,91.80
2018-03-18T04:15:47.036Z,91.30
2018-03-18T04:20:30.602Z,91.50
2018-03-18T04:25:14.118Z,91.20
2018-03-18T04:30:00.831Z,91.10
2018-03-18T04:34:45.042Z,91.20
2018-03-18T04:39:29.035Z,91.20
2018-03-18T04:44:13.476Z,91.40
2018-03-18T04:48:57.332Z,91.20
2018-03-18T04:53:42.338Z,91.10
2018-03-18T04:58:30.587Z,91.40
2018-03-18T05:03:17.435Z,90.60
2018-03-18T05:08:05.576Z,90.90
2018-03-18T05:12:50.104Z,91.40
2018-03-18T05:17:33.800Z,90.70
2018-03-18T05:22:17.583Z,90.80
2018-03-18T05:27:03.417Z,90.60
2018-03-18T05:31:47.264Z,90.50
2018-03-18T05:36:33.584Z,90.60
2018-03-18T05:41:20.920Z,90.60
2018-03-18T05:46:04.385Z,90.50
2018-03-18T05:50:49.947Z,90.30
2018-03-18T05:55:37.376Z,89.70
2018-03-18T06:00:23.465Z,90.00
2018-03-18T06:05:14.883Z,88.30
2018-03-18T06:10:02.914Z,89.60
2018-03-18T06:14:48.842Z,89.60
2018-03-18T06:19:35.337Z,87.50
2018-03-18T06:24:18.787Z,87.10
2018-03-18T06:29:09.880Z,86.60
2018-03-18T06:33:54.999Z,85.50
2018-03-18T06:38:41.803Z,84.60
2018-03-18T06:43:26.403Z,84.60
2018-03-18T06:48:11.100Z,84.60
2018-03-18T06:52:54.860Z,84.50
2018-03-18T06:57:39.146Z,82.80
2018-03-18T07:02:22.691Z,82.80
2018-03-18T07:07:06.379Z,81.70
2018-03-18T07:11:49.818Z,81.80
2018-03-18T07:16:36.060Z,80.80
2018-03-18T07:21:20.100Z,81.20
2018-03-18T07:26:03.642Z,80.90
2018-03-18T07:30:47.075Z,80.70
2018-03-18T07:35:31.604Z,80.10
2018-03-18T07:40:14.959Z,80.10
2018-03-18T07:44:58.716Z,77.70
2018-03-18T07:49:42.122Z,76.90
2018-03-18T07:54:26.216Z,77.00
2018-03-18T07:59:10.448Z,76.90
2018-03-18T08:03:53.887Z,77.10
2018-03-18T08:08:37.371Z,76.70
2018-03-18T08:13:20.694Z,76.60
2018-03-18T08:18:17.508Z,75.10
2018-03-18T08:23:03.398Z,76.40
2018-03-18T08:27:46.806Z,74.90
2018-03-18T08:32:30.212Z,72.40
2018-03-18T08:37:14.113Z,73.10
2018-03-18T08:41:58.451Z,74.40
2018-03-18T08:46:41.769Z,72.90
2018-03-18T08:51:25.148Z,73.40
2018-03-18T08:56:08.696Z,72.40
2018-03-18T09:00:53.698Z,71.40
2018-03-18T09:05:37.016Z,70.80
2018-03-18T09:10:20.419Z,69.50
2018-03-18T09:15:03.759Z,70.40
2018-03-18T09:19:47.201Z,69.60
2018-03-18T09:24:30.608Z,71.60
2018-03-18T09:29:13.936Z,66.70
2018-03-18T09:33:57.343Z,67.80
2018-03-18T09:38:40.737Z,69.10
2018-03-18T09:43:24.095Z,68.10
2018-03-18T09:48:08.182Z,69.90
2018-03-18T09:52:51.549Z,69.80
2018-03-18T09:57:34.938Z,63.00
2018-03-18T10:02:18.352Z,65.60
2018-03-18T10:07:01.721Z,64.50
2018-03-18T10:11:45.910Z,63.30
2018-03-18T10:16:29.664Z,62.70
2018-03-18T10:21:13.957Z,65.70
2018-03-18T10:25:57.424Z,63.30
2018-03-18T10:30:41.693Z,61.10
2018-03-18T10:35:27.145Z,61.10
2018-03-18T10:40:10.839Z,61.20
2018-03-18T10:44:54.215Z,61.90
2018-03-18T10:49:37.615Z,62.70
2018-03-18T10:54:20.989Z,56.80
2018-03-18T10:59:08.884Z,56.20
2018-03-18T11:03:58.453Z,58.20
2018-03-18T11:08:41.813Z,58.40
2018-03-18T11:13:25.942Z,54.10
2018-03-18T11:18:09.412Z,53.90
2018-03-18T11:22:53.826Z,58.00
2018-03-18T11:27:37.609Z,55.20
2018-03-18T11:32:30.011Z,53.60
2018-03-18T11:37:21.257Z,53.70
2018-03-18T11:47:12.003Z,49.10
2018-03-18T11:52:00.187Z,51.00
2018-03-18T12:01:38.824Z,52.30
2018-03-18T12:06:30.249Z,52.90
2018-03-18T12:11:14.441Z,50.00
2018-03-18T12:15:59.522Z,51.00
2018-03-18T12:20:44.369Z,51.00
2018-03-18T12:25:29.804Z,48.70
2018-03-18T12:30:16.490Z,48.80
2018-03-18T12:35:02.011Z,48.20
2018-03-18T12:40:06.932Z,46.70
2018-03-18T12:44:50.320Z,49.40
2018-03-18T12:49:34.578Z,51.00
2018-03-18T12:54:20.008Z,48.80
2018-03-18T12:59:03.349Z,48.20
2018-03-18T13:03:46.910Z,54.20
2018-03-18T13:08:32.559Z,55.80
2018-03-18T13:13:18.499Z,50.20
2018-03-18T13:18:01.911Z,53.00
2018-03-18T13:22:45.400Z,49.70
2018-03-18T13:27:31.585Z,53.60
2018-03-18T13:32:15.484Z,54.40
2018-03-18T13:36:59.331Z,53.00
2018-03-18T13:41:43.475Z,49.40
2018-03-18T13:46:26.900Z,53.20
2018-03-18T13:51:10.537Z,49.30
2018-03-18T13:55:54.523Z,50.80
2018-03-18T14:00:39.004Z,51.20
2018-03-18T14:05:27.166Z,50.60
2018-03-18T14:10:13.713Z,53.30
2018-03-18T14:14:58.728Z,53.10
2018-03-18T14:19:44.788Z,48.80
2018-03-18T14:24:32.817Z,52.00
2018-03-18T14:29:23.802Z,58.40
2018-03-18T14:34:08.463Z,55.30
2018-03-18T14:38:54.596Z,55.60
2018-03-18T14:43:41.104Z,55.50
2018-03-18T14:48:25.083Z,57.70
2018-03-18T14:53:10.693Z,61.10
2018-03-18T14:58:14.747Z,59.30
2018-03-18T15:03:02.332Z,59.30
2018-03-18T15:07:52.841Z,58.90
2018-03-18T15:12:45.061Z,61.40
2018-03-18T15:17:28.811Z,63.30
2018-03-18T15:22:22.077Z,62.40
2018-03-18T15:27:10.686Z,60.90
2018-03-18T15:32:10.672Z,60.80
2018-03-18T15:36:55.307Z,61.00
2018-03-18T15:42:04.512Z,60.40
2018-03-18T15:46:52.603Z,61.00
2018-03-18T15:51:49.713Z,60.60
2018-03-18T15:56:36.859Z,62.20
2018-03-18T16:01:21.047Z,65.50
2018-03-18T16:06:04.650Z,65.40
2018-03-18T16:10:48.235Z,62.10
2018-03-18T16:15:33.424Z,65.10
2018-03-18T16:20:16.810Z,65.10
2018-03-18T16:25:00.180Z,67.30
2018-03-18T16:30:08.240Z,67.60
2018-03-18T16:34:51.630Z,66.90
2018-03-18T16:39:35.781Z,67.80
2018-03-18T16:44:19.306Z,67.80
2018-03-18T16:49:02.835Z,68.60
2018-03-18T16:53:46.297Z,70.60
2018-03-18T16:58:29.599Z,70.30
2018-03-18T17:03:14.689Z,69.60
2018-03-18T17:07:58.116Z,69.60
2018-03-18T17:12:42.329Z,72.10
2018-03-18T17:17:25.685Z,72.10
2018-03-18T17:22:09.010Z,70.20
2018-03-18T17:26:52.451Z,70.60
2018-03-18T17:31:35.872Z,71.40
2018-03-18T17:36:19.377Z,73.00
2018-03-18T17:41:03.735Z,73.30
2018-03-18T17:45:59.807Z,73.20
2018-03-18T17:50:55.151Z,73.80
2018-03-18T17:55:39.722Z,74.50
2018-03-18T18:00:23.775Z,73.90
2018-03-18T18:05:08.820Z,74.70
2018-03-18T18:09:52.353Z,74.60
2018-03-18T18:14:38.154Z,74.60
2018-03-18T18:19:23.888Z,74.60
2018-03-18T18:24:10.004Z,75.50
2018-03-18T18:28:55.160Z,75.90
2018-03-18T18:33:42.582Z,75.50
2018-03-18T18:38:26.238Z,75.40
2018-03-18T18:43:10.035Z,75.20
2018-03-18T18:47:54.931Z,76.80
2018-03-18T18:52:40.992Z,76.00
2018-03-18T18:57:24.671Z,76.30
2018-03-18T19:02:09.972Z,76.30
2018-03-18T19:06:53.647Z,76.50
2018-03-18T19:11:38.155Z,76.80
2018-03-18T19:16:23.434Z,77.50
2018-03-18T19:21:07.291Z,77.50
2018-03-18T19:25:50.945Z,78.30
2018-03-18T19:30:34.572Z,78.30
2018-03-18T19:35:18.121Z,77.10
2018-03-18T19:40:03.112Z,78.90
2018-03-18T19:44:46.558Z,78.80
2018-03-18T19:49:30.174Z,78.80
2018-03-18T19:54:14.513Z,78.50
2018-03-18T19:59:00.306Z,78.60
2018-03-18T20:03:44.010Z,78.50
2018-03-18T20:08:29.039Z,79.00
2018-03-18T20:13:12.500Z,78.10
2018-03-18T20:17:56.041Z,77.50
2018-03-18T20:22:41.594Z,77.60
2018-03-18T20:27:26.170Z,77.20
2018-03-18T20:32:09.856Z,77.30
2018-03-18T20:36:55.900Z,76.00
2018-03-18T20:41:39.634Z,76.40
2018-03-18T20:46:24.171Z,76.50
2018-03-18T20:51:09.860Z,77.10
2018-03-18T20:55:53.356Z,76.20
2018-03-18T21:00:38.512Z,76.90
2018-03-18T21:05:24.956Z,76.60
2018-03-18T21:10:08.815Z,76.30
2018-03-18T21:14:52.375Z,77.00
2018-03-18T21:19:36.037Z,75.30
2018-03-18T21:24:19.690Z,76.30
2018-03-18T21:29:03.094Z,76.50
2018-03-18T21:33:46.605Z,77.70
2018-03-18T21:38:30.934Z,76.60
2018-03-18T21:43:14.471Z,76.90
2018-03-18T22:30:27.659Z,77.70
2018-03-18T22:35:10.992Z,77.70
2018-03-18T22:39:54.847Z,79.50
2018-03-18T22:44:39.457Z,78.40
2018-03-18T22:49:23.191Z,78.50
2018-03-18T22:54:07.524Z,79.30
2018-03-18T22:58:50.905Z,78.20
2018-03-18T23:03:35.371Z,79.40
2018-03-18T23:08:19.674Z,80.00
2018-03-18T23:13:07.339Z,79.90
2018-03-18T23:17:57.791Z,78.80
2018-03-18T23:22:46.309Z,78.40
